createdAt,value
2018-07-11T00:01:40.118Z,10.60
2018-07-11T00:04:07.762Z,11.03
2018-07-11T00:06:35.378Z,11.27
2018-07-11T00:09:04.103Z,10.87
2018-07-11T00:11:31.796Z,10.53
2018-07-11T00:13:59.339Z,11.10
2018-07-11T00:16:26.902Z,11.23
2018-07-11T00:18:54.485Z,13.27
2018-07-11T00:21:22.145Z,12.03
2018-07-11T00:23:49.770Z,11.83
2018-07-11T00:26:17.402Z,11.20
2018-07-11T00:28:45.083Z,11.37
2018-07-11T00:31:12.738Z,12.13
2018-07-11T00:33:40.318Z,11.43
2018-07-11T00:36:07.940Z,11.30
2018-07-11T00:38:35.638Z,11.27
2018-07-11T00:41:03.450Z,11.07
2018-07-11T00:43:32.874Z,10.83
2018-07-11T00:46:01.247Z,10.80
2018-07-11T00:48:28.946Z,9.87
2018-07-11T00:50:56.820Z,10.77
2018-07-11T00:53:24.460Z,10.37
2018-07-11T00:55:52.126Z,10.57
2018-07-11T00:58:30.304Z,10.67
2018-07-11T01:01:16.450Z,10.53
2018-07-11T01:03:53.406Z,9.67
2018-07-11T01:06:21.163Z,11.37
2018-07-11T01:09:03.779Z,12.90
2018-07-11T01:11:33.843Z,12.97
2018-07-11T01:14:01.485Z,10.67
2018-07-11T01:16:29.665Z,10.20
2018-07-11T01:18:59.854Z,10.93
2018-07-11T01:21:27.970Z,11.60
2018-07-11T01:23:55.603Z,12.07
2018-07-11T01:26:25.435Z,10.93
2018-07-11T01:28:53.094Z,11.70
2018-07-11T01:31:20.807Z,10.73
2018-07-11T01:33:48.331Z,10.63
2018-07-11T01:36:16.231Z,11.00
2018-07-11T01:38:43.813Z,10.47
2018-07-11T01:41:11.461Z,10.93
2018-07-11T01:43:39.225Z,10.53
2018-07-11T01:46:06.955Z,11.67
2018-07-11T01:48:34.602Z,10.63
2018-07-11T01:51:02.266Z,10.60
2018-07-11T01:53:29.918Z,10.53
2018-07-11T01:55:57.505Z,10.10
2018-07-11T01:58:25.577Z,11.90
2018-07-11T02:00:53.240Z,10.43
2018-07-11T02:03:20.974Z,11.03
2018-07-11T02:05:48.993Z,10.90
2018-07-11T02:08:16.628Z,10.97
2018-07-11T02:10:44.314Z,10.20
2018-07-11T02:13:12.243Z,10.30
2018-07-11T02:15:39.936Z,10.03
2018-07-11T02:18:07.607Z,10.90
2018-07-11T02:20:35.266Z,10.50
2018-07-11T02:23:02.938Z,10.57
2018-07-11T02:25:30.606Z,10.00
2018-07-11T02:27:58.276Z,11.13
2018-07-11T02:30:26.391Z,10.73
2018-07-11T02:32:53.995Z,11.33
2018-07-11T02:35:21.631Z,11.37
2018-07-11T02:37:49.218Z,11.70
2018-07-11T02:40:16.796Z,10.87
2018-07-11T02:42:44.390Z,10.43
2018-07-11T02:45:11.990Z,11.60
2018-07-11T02:47:41.652Z,9.80
2018-07-11T02:50:09.247Z,11.23
2018-07-11T02:52:36.884Z,10.33
2018-07-11T02:55:04.677Z,10.57
2018-07-11T02:57:32.222Z,11.10
2018-07-11T02:59:59.857Z,10.87
2018-07-11T03:02:27.466Z,11.07
2018-07-11T03:04:55.072Z,10.87
2018-07-11T03:07:22.674Z,11.27
2018-07-11T03:09:50.249Z,11.40
2018-07-11T03:12:17.801Z,11.17
2018-07-11T03:14:48.142Z,10.37
2018-07-11T03:17:15.818Z,9.67
2018-07-11T03:19:43.443Z,12.00
2018-07-11T03:22:11.323Z,11.43
2018-07-11T03:24:38.941Z,10.60
2018-07-11T03:27:06.567Z,11.50
2018-07-11T03:29:34.230Z,10.87
2018-07-11T03:32:01.828Z,10.33
2018-07-11T03:34:29.383Z,11.13
2018-07-11T03:36:56.972Z,10.67
2018-07-11T03:39:24.626Z,11.23
2018-07-11T03:41:52.213Z,10.73
2018-07-11T03:44:19.855Z,9.93
2018-07-11T03:46:47.450Z,10.77
2018-07-11T03:49:15.018Z,10.33
2018-07-11T03:51:42.623Z,11.97
2018-07-11T03:54:10.155Z,11.80
2018-07-11T03:56:37.735Z,10.50
2018-07-11T03:59:05.615Z,10.73
2018-07-11T04:01:33.174Z,10.60
2018-07-11T04:04:00.745Z,10.20
2018-07-11T04:06:28.355Z,10.63
2018-07-11T04:08:55.910Z,9.90
2018-07-11T04:11:23.443Z,9.93
2018-07-11T04:13:51.198Z,10.47
2018-07-11T04:16:18.752Z,11.60
2018-07-11T04:18:46.266Z,10.00
2018-07-11T04:21:13.810Z,10.63
2018-07-11T04:23:41.467Z,10.77
2018-07-11T04:26:09.130Z,11.37
2018-07-11T04:28:36.782Z,10.57
2018-07-11T04:31:04.435Z,10.90
2018-07-11T04:33:32.179Z,11.03
2018-07-11T04:35:59.826Z,10.47
2018-07-11T04:38:27.479Z,10.07
2018-07-11T04:40:55.109Z,10.90
2018-07-11T04:43:25.040Z,10.37
2018-07-11T04:45:52.718Z,10.63
2018-07-11T04:48:20.605Z,9.73
2018-07-11T04:50:49.390Z,10.13
2018-07-11T04:53:21.609Z,10.10
2018-07-11T04:55:51.530Z,10.87
2018-07-11T04:58:19.080Z,10.80
2018-07-11T05:00:46.634Z,10.53
2018-07-11T05:03:14.290Z,10.50
2018-07-11T05:05:41.879Z,10.13
2018-07-11T05:08:09.448Z,11.13
2018-07-11T05:10:36.991Z,10.33
2018-07-11T05:13:04.581Z,10.87
2018-07-11T05:15:32.131Z,10.97
2018-07-11T05:17:59.666Z,11.17
2018-07-11T05:20:27.231Z,10.50
2018-07-11T05:22:54.766Z,11.00
2018-07-11T05:25:22.325Z,10.40
2018-07-11T05:27:49.847Z,9.83
2018-07-11T05:30:17.416Z,10.63
2018-07-11T05:32:44.957Z,11.07
2018-07-11T05:35:12.598Z,10.80
2018-07-11T05:37:40.219Z,9.63
2018-07-11T05:40:07.795Z,10.33
2018-07-11T05:42:35.370Z,9.97
2018-07-11T05:45:02.915Z,10.20
2018-07-11T05:47:30.503Z,10.23
2018-07-11T05:49:58.039Z,10.17
2018-07-11T05:52:25.630Z,9.87
2018-07-11T05:54:53.169Z,9.90
2018-07-11T05:57:20.718Z,10.63
2018-07-11T05:59:48.274Z,9.83
2018-07-11T06:02:15.833Z,10.20
2018-07-11T06:04:43.395Z,10.30
2018-07-11T06:07:12.123Z,10.67
2018-07-11T06:09:39.694Z,9.97
2018-07-11T06:12:07.225Z,10.83
2018-07-11T06:14:34.774Z,9.57
2018-07-11T06:17:02.363Z,9.33
2018-07-11T06:19:29.913Z,9.70
2018-07-11T06:21:57.505Z,9.07
2018-07-11T06:24:25.078Z,10.00
2018-07-11T06:26:52.838Z,10.17
2018-07-11T06:29:20.390Z,10.03
2018-07-11T06:31:47.958Z,9.13
2018-07-11T06:34:15.482Z,8.70
2018-07-11T06:36:43.027Z,10.53
2018-07-11T06:39:10.583Z,9.20
2018-07-11T06:41:38.129Z,8.97
2018-07-11T06:44:05.701Z,9.03
2018-07-11T06:46:33.263Z,9.40
2018-07-11T06:49:00.871Z,9.27
2018-07-11T06:51:28.418Z,8.37
2018-07-11T06:53:55.986Z,8.23
2018-07-11T06:56:23.537Z,8.40
2018-07-11T06:58:51.079Z,8.80
2018-07-11T07:01:18.662Z,8.37
2018-07-11T07:03:46.236Z,8.37
2018-07-11T07:06:13.862Z,11.37
2018-07-11T07:08:41.410Z,8.43
2018-07-11T07:11:09.033Z,8.73
2018-07-11T07:13:36.554Z,8.60
2018-07-11T07:16:04.222Z,8.67
2018-07-11T07:18:31.783Z,8.53
2018-07-11T07:20:59.354Z,8.90
2018-07-11T07:23:26.898Z,8.13
2018-07-11T07:25:54.434Z,8.77
2018-07-11T07:28:22.047Z,9.67
2018-07-11T07:30:49.591Z,8.13
2018-07-11T07:33:17.154Z,8.63
2018-07-11T07:35:44.712Z,8.73
2018-07-11T07:38:12.337Z,9.17
2018-07-11T07:40:39.910Z,8.97
2018-07-11T07:43:07.510Z,8.33
2018-07-11T07:45:35.186Z,8.87
2018-07-11T07:48:02.795Z,8.20
2018-07-11T07:50:30.494Z,7.80
2018-07-11T07:52:58.271Z,8.53
2018-07-11T07:55:25.734Z,7.80
2018-07-11T07:57:53.342Z,8.17
2018-07-11T08:00:21.030Z,7.87
2018-07-11T08:02:48.732Z,10.80
2018-07-11T08:05:16.272Z,7.33
2018-07-11T08:07:43.810Z,9.73
2018-07-11T08:10:11.373Z,9.07
2018-07-11T08:12:38.938Z,11.60
2018-07-11T08:15:07.289Z,9.97
2018-07-11T08:17:34.995Z,9.77
2018-07-11T08:20:02.590Z,9.17
2018-07-11T08:23:43.298Z,10.33
2018-07-11T08:26:22.743Z,10.17
2018-07-11T08:29:13.030Z,10.93
2018-07-11T08:32:11.233Z,9.53
2018-07-11T08:34:52.950Z,9.23
2018-07-11T08:37:40.474Z,9.47
2018-07-11T08:44:32.990Z,7.63
2018-07-11T08:49:20.070Z,7.70
2018-07-11T08:52:23.781Z,7.67
2018-07-11T08:57:11.293Z,7.60
2018-07-11T08:59:53.514Z,7.63
2018-07-11T09:03:32.216Z,7.40
2018-07-11T09:06:13.879Z,7.00
2018-07-11T09:08:52.783Z,6.83
2018-07-11T09:11:44.543Z,6.50
2018-07-11T09:16:44.860Z,6.13
2018-07-11T09:19:53.715Z,6.20
2018-07-11T09:22:32.630Z,6.07
2018-07-11T09:25:00.152Z,6.57
2018-07-11T09:27:27.679Z,6.13
2018-07-11T09:29:55.253Z,6.00
2018-07-11T09:32:22.810Z,5.37
2018-07-11T09:34:50.486Z,5.73
2018-07-11T09:37:18.029Z,5.20
2018-07-11T09:39:45.567Z,5.03
2018-07-11T09:42:13.206Z,5.77
2018-07-11T09:44:40.826Z,5.47
2018-07-11T09:47:13.889Z,5.80
2018-07-11T09:49:41.481Z,6.03
2018-07-11T09:52:09.107Z,7.33
2018-07-11T09:54:36.743Z,7.33
2018-07-11T09:57:04.426Z,7.93
2018-07-11T09:59:32.294Z,7.70
2018-07-11T10:01:59.977Z,7.63
2018-07-11T10:04:27.692Z,7.27
2018-07-11T10:06:55.366Z,7.30
2018-07-11T10:09:23.022Z,7.17
2018-07-11T10:11:50.746Z,7.03
2018-07-11T10:14:18.313Z,6.30
2018-07-11T10:16:45.862Z,6.30
2018-07-11T10:19:13.494Z,6.03
2018-07-11T10:21:41.108Z,6.23
2018-07-11T10:24:08.757Z,5.93
2018-07-11T10:26:36.300Z,5.13
2018-07-11T10:29:03.875Z,5.43
2018-07-11T10:31:31.404Z,5.70
2018-07-11T10:33:58.970Z,5.07
2018-07-11T10:36:26.587Z,5.23
2018-07-11T10:38:54.667Z,5.50
2018-07-11T10:41:22.248Z,5.70
2018-07-11T10:43:49.849Z,5.97
2018-07-11T10:46:17.502Z,5.17
2018-07-11T10:48:45.015Z,5.37
2018-07-11T10:51:12.602Z,5.87
2018-07-11T10:53:40.206Z,7.43
2018-07-11T10:56:07.747Z,6.57
2018-07-11T10:58:35.537Z,5.93
2018-07-11T11:01:05.698Z,5.83
2018-07-11T11:03:32.130Z,6.40
2018-07-11T11:05:59.735Z,5.50
2018-07-11T11:08:28.166Z,7.30
2018-07-11T11:10:55.800Z,6.33
2018-07-11T11:13:23.911Z,5.13
2018-07-11T11:15:52.172Z,6.83
2018-07-11T11:18:20.425Z,6.23
2018-07-11T11:20:49.329Z,5.43
2018-07-11T11:23:17.062Z,5.90
2018-07-11T11:25:44.681Z,5.50
2018-07-11T11:28:12.277Z,4.90
2018-07-11T11:30:39.855Z,5.20
2018-07-11T11:33:07.433Z,4.73
2018-07-11T11:35:35.041Z,7.07
2018-07-11T11:38:02.678Z,8.00
2018-07-11T11:40:30.298Z,9.20
2018-07-11T11:42:57.959Z,8.10
2018-07-11T11:45:25.558Z,8.90
2018-07-11T11:47:59.235Z,8.40
2018-07-11T11:50:27.593Z,8.53
2018-07-11T11:53:13.836Z,8.80
2018-07-11T11:55:41.598Z,8.20
2018-07-11T11:58:09.252Z,7.87
2018-07-11T12:00:36.842Z,9.27
2018-07-11T12:03:04.787Z,7.83
2018-07-11T12:05:32.417Z,7.57
2018-07-11T12:07:59.942Z,6.80
2018-07-11T12:10:27.499Z,5.77
2018-07-11T12:12:55.096Z,5.30
2018-07-11T12:15:22.662Z,6.07
2018-07-11T12:17:50.279Z,5.00
2018-07-11T12:20:17.824Z,5.77
2018-07-11T12:22:45.507Z,5.13
2018-07-11T12:25:13.099Z,5.23
2018-07-11T12:27:40.780Z,5.07
2018-07-11T12:30:08.308Z,4.13
2018-07-11T12:32:35.978Z,4.13
2018-07-11T12:35:03.631Z,3.87
2018-07-11T12:37:31.331Z,3.37
2018-07-11T12:39:58.943Z,4.03
2018-07-11T12:42:26.538Z,5.53
2018-07-11T12:44:54.157Z,6.30
2018-07-11T12:47:27.362Z,4.90
2018-07-11T12:49:55.046Z,5.00
2018-07-11T12:52:22.670Z,5.10
2018-07-11T12:54:50.346Z,5.03
2018-07-11T12:57:18.031Z,4.93
2018-07-11T12:59:46.174Z,4.67
2018-07-11T13:02:13.931Z,3.27
2018-07-11T13:04:41.627Z,2.80
2018-07-11T13:07:09.266Z,2.50
2018-07-11T13:09:37.026Z,2.40
2018-07-11T13:12:05.043Z,2.60
2018-07-11T13:14:32.566Z,2.80
2018-07-11T13:17:00.986Z,2.83
2018-07-11T13:19:28.551Z,2.97
2018-07-11T13:21:56.173Z,2.17
2018-07-11T13:24:23.742Z,2.40
2018-07-11T13:26:51.316Z,2.13
2018-07-11T13:29:18.902Z,2.43
2018-07-11T13:31:46.542Z,2.17
2018-07-11T13:34:14.184Z,2.33
2018-07-11T13:36:41.858Z,2.67
2018-07-11T13:39:15.246Z,2.37
2018-07-11T13:41:43.534Z,3.13
2018-07-11T13:44:11.208Z,2.00
2018-07-11T13:46:38.827Z,2.07
2018-07-11T13:49:06.691Z,3.37
2018-07-11T13:51:34.258Z,1.70
2018-07-11T13:54:01.926Z,2.30
2018-07-11T13:56:29.542Z,2.10
2018-07-11T13:58:57.778Z,2.07
2018-07-11T14:01:26.382Z,2.40
2018-07-11T14:03:54.070Z,2.67
2018-07-11T14:06:21.726Z,3.27
2018-07-11T14:08:49.529Z,3.10
2018-07-11T14:11:17.201Z,4.07
2018-07-11T14:13:44.955Z,4.17
2018-07-11T14:16:12.646Z,4.33
2018-07-11T14:18:40.342Z,4.40
2018-07-11T14:21:07.926Z,4.90
2018-07-11T14:23:37.856Z,5.40
2018-07-11T14:26:05.594Z,5.00
2018-07-11T14:28:33.698Z,6.07
2018-07-11T14:31:02.103Z,4.83
2018-07-11T14:33:31.079Z,4.83
2018-07-11T14:35:59.156Z,5.43
2018-07-11T14:38:27.783Z,5.80
2018-07-11T14:40:55.846Z,5.60
2018-07-11T14:43:23.534Z,6.50
2018-07-11T14:45:52.321Z,5.27
2018-07-11T14:48:20.218Z,5.80
2018-07-11T14:50:47.879Z,4.53
2018-07-11T14:53:15.519Z,5.13
2018-07-11T14:55:43.304Z,5.17
2018-07-11T14:58:10.985Z,5.10
2018-07-11T15:00:38.534Z,3.93
2018-07-11T15:03:06.134Z,4.57
2018-07-11T15:05:33.776Z,5.70
2018-07-11T15:08:01.455Z,6.07
2018-07-11T15:10:29.090Z,6.10
2018-07-11T15:12:56.681Z,9.43
2018-07-11T15:15:24.303Z,5.00
2018-07-11T15:17:51.894Z,4.80
2018-07-11T15:20:19.554Z,4.50
2018-07-11T15:22:47.226Z,6.80
2018-07-11T15:25:14.850Z,6.83
2018-07-11T15:27:42.459Z,6.97
2018-07-11T15:30:09.998Z,6.83
2018-07-11T15:32:37.767Z,6.70
2018-07-11T15:35:05.639Z,5.90
2018-07-11T15:37:33.280Z,6.10
2018-07-11T15:40:02.819Z,11.17
2018-07-11T15:42:30.728Z,7.90
2018-07-11T15:44:58.409Z,5.87
2018-07-11T15:47:27.436Z,6.20
2018-07-11T15:49:55.877Z,3.77
2018-07-11T15:52:24.791Z,4.27
2018-07-11T15:54:55.365Z,3.67
2018-07-11T15:57:33.319Z,3.03
2018-07-11T16:00:06.639Z,3.80
2018-07-11T16:02:39.064Z,4.17
2018-07-11T16:05:06.808Z,3.70
2018-07-11T16:07:34.797Z,3.87
2018-07-11T16:10:02.495Z,3.10
2018-07-11T16:12:30.118Z,4.00
2018-07-11T16:14:57.762Z,4.13
2018-07-11T16:17:25.345Z,4.43
2018-07-11T16:19:53.048Z,4.33
2018-07-11T16:22:21.209Z,4.00
2018-07-11T16:24:48.890Z,4.53
2018-07-11T16:27:16.592Z,4.80
2018-07-11T16:29:44.162Z,3.90
2018-07-11T16:32:11.817Z,5.03
2018-07-11T16:34:39.459Z,4.80
2018-07-11T16:37:07.081Z,7.60
2018-07-11T16:39:34.748Z,4.40
2018-07-11T16:42:03.839Z,3.80
2018-07-11T16:44:31.822Z,3.43
2018-07-11T16:47:00.891Z,3.80
2018-07-11T16:49:29.137Z,3.60
2018-07-11T16:51:57.598Z,3.53
2018-07-11T16:54:25.297Z,3.37
2018-07-11T16:56:52.962Z,3.37
2018-07-11T16:59:23.167Z,2.70
2018-07-11T17:01:59.230Z,2.30
2018-07-11T17:04:29.535Z,2.37
2018-07-11T17:06:57.206Z,2.20
2018-07-11T17:09:25.168Z,2.13
2018-07-11T17:11:52.855Z,2.57
2018-07-11T17:14:22.056Z,1.40
2018-07-11T17:16:59.939Z,1.73
2018-07-11T17:19:36.721Z,1.80
2018-07-11T17:22:04.922Z,2.47
2018-07-11T17:24:37.191Z,23.27
2018-07-11T17:27:04.842Z,5.00
2018-07-11T17:29:32.634Z,2.47
2018-07-11T17:32:03.810Z,2.60
2018-07-11T17:34:32.075Z,2.20
2018-07-11T17:37:01.625Z,2.20
2018-07-11T17:40:35.306Z,2.47
2018-07-11T17:43:02.990Z,2.10
2018-07-11T17:45:30.618Z,2.20
2018-07-11T17:48:11.192Z,2.30
2018-07-11T17:50:38.861Z,2.30
2018-07-11T17:53:09.974Z,2.30
2018-07-11T17:55:50.761Z,3.63
2018-07-11T17:58:20.041Z,2.10
2018-07-11T18:00:51.537Z,2.13
2018-07-11T18:05:34.662Z,2.50
2018-07-11T18:08:06.796Z,2.63
2018-07-11T18:10:52.594Z,2.90
2018-07-11T18:13:34.616Z,2.43
2018-07-11T18:16:51.589Z,14.43
2018-07-11T18:21:38.963Z,3.70
2018-07-11T18:26:24.627Z,2.10
2018-07-11T18:31:04.383Z,3.20
2018-07-11T18:33:48.543Z,7.60
2018-07-11T18:36:53.377Z,4.50
2018-07-11T18:39:27.515Z,5.77
2018-07-11T18:42:06.356Z,5.87
2018-07-11T18:44:45.952Z,6.60
2018-07-11T18:47:22.927Z,5.47
2018-07-11T18:52:06.690Z,6.53
2018-07-11T18:56:00.502Z,4.80
2018-07-11T18:59:36.911Z,4.70
2018-07-11T19:02:10.424Z,5.17
2018-07-11T19:05:20.445Z,4.73
2018-07-11T19:07:52.730Z,6.87
2018-07-11T19:11:31.090Z,5.10
2018-07-11T19:14:03.418Z,4.50
2018-07-11T19:18:49.846Z,4.97
2018-07-11T19:21:23.975Z,4.20
2018-07-11T19:24:01.449Z,5.57
2018-07-11T19:26:42.855Z,10.70
2018-07-11T19:29:45.856Z,4.10
2018-07-11T19:32:23.358Z,9.03
2018-07-11T19:34:59.738Z,4.37
2018-07-11T19:38:33.491Z,4.87
2018-07-11T19:41:23.558Z,4.60
2018-07-11T19:43:54.414Z,4.70
2018-07-11T19:46:31.390Z,4.60
2018-07-11T19:49:10.890Z,5.47
2018-07-11T19:51:49.295Z,4.50
2018-07-11T19:54:54.420Z,4.70
2018-07-11T19:57:22.512Z,4.93
2018-07-11T19:59:50.143Z,4.73
2018-07-11T20:02:17.745Z,4.30
2018-07-11T20:04:45.429Z,4.37
2018-07-11T20:07:13.106Z,5.00
2018-07-11T20:09:40.704Z,4.83
2018-07-11T20:12:08.338Z,5.57
2018-07-11T20:14:36.027Z,26.33
2018-07-11T20:17:03.618Z,28.37
2018-07-11T20:19:31.230Z,10.83
2018-07-11T20:21:58.889Z,5.20
2018-07-11T20:24:26.526Z,6.13
2018-07-11T20:26:54.237Z,5.30
2018-07-11T20:29:21.867Z,6.43
2018-07-11T20:31:49.442Z,6.27
2018-07-11T20:34:17.043Z,9.17
2018-07-11T20:36:44.689Z,9.43
2018-07-11T20:39:12.266Z,5.80
2018-07-11T20:41:39.946Z,7.43
2018-07-11T20:44:07.544Z,9.00
2018-07-11T20:46:35.228Z,15.03
2018-07-11T20:49:08.556Z,26.60
2018-07-11T20:51:36.114Z,12.20
2018-07-11T20:54:03.694Z,13.67
2018-07-11T20:56:31.343Z,7.30
2018-07-11T21:00:09.795Z,10.47
2018-07-11T21:02:48.587Z,9.43
2018-07-11T21:05:29.330Z,5.97
2018-07-11T21:08:10.302Z,5.63
2018-07-11T21:12:56.854Z,5.37
2018-07-11T21:15:50.617Z,5.07
2018-07-11T21:18:32.360Z,4.83
2018-07-11T21:20:59.907Z,4.53
2018-07-11T21:23:27.779Z,4.10
2018-07-11T21:25:55.358Z,4.20
2018-07-11T21:28:22.890Z,4.27
2018-07-11T21:30:50.434Z,4.40
2018-07-11T21:33:17.997Z,4.40
2018-07-11T21:35:45.597Z,5.17
2018-07-11T21:38:13.158Z,4.63
2018-07-11T21:40:40.758Z,5.03
2018-07-11T21:43:08.294Z,5.07
2018-07-11T21:45:35.882Z,4.60
2018-07-11T21:48:03.440Z,4.63
2018-07-11T21:50:31.015Z,5.20
2018-07-11T21:52:58.596Z,5.13
2018-07-11T21:55:26.197Z,5.13
2018-07-11T21:57:53.882Z,4.90
2018-07-11T22:00:32.611Z,5.40
2018-07-11T22:03:00.207Z,5.30
2018-07-11T22:05:28.897Z,4.67
2018-07-11T22:07:56.598Z,5.00
2018-07-11T22:10:24.190Z,5.47
2018-07-11T22:12:51.726Z,5.97
2018-07-11T22:15:19.336Z,5.60
2018-07-11T22:17:58.326Z,5.30
2018-07-11T22:20:24.718Z,5.10
2018-07-11T22:22:51.138Z,4.90
2018-07-11T22:25:17.523Z,5.30
2018-07-11T22:27:43.851Z,4.10
2018-07-11T22:30:10.178Z,4.60
2018-07-11T22:32:36.926Z,5.37
2018-07-11T22:35:03.262Z,5.53
2018-07-11T22:37:29.613Z,5.43
2018-07-11T22:39:55.952Z,5.83
2018-07-11T22:42:22.315Z,5.10
2018-07-11T22:44:48.689Z,4.80
2018-07-11T22:47:15.061Z,5.93
2018-07-11T22:49:45.905Z,7.13
2018-07-11T22:52:12.258Z,6.70
2018-07-11T22:54:38.603Z,6.80
2018-07-11T22:57:04.937Z,6.80
2018-07-11T22:59:31.330Z,5.97
2018-07-11T23:01:57.669Z,6.30
2018-07-11T23:04:24.058Z,6.03
2018-07-11T23:06:50.379Z,5.43
2018-07-11T23:09:16.701Z,5.90
2018-07-11T23:11:43.047Z,5.00
2018-07-11T23:14:09.382Z,5.20
2018-07-11T23:16:35.734Z,5.90
2018-07-11T23:19:02.065Z,5.87
2018-07-11T23:21:28.414Z,5.90
2018-07-11T23:23:54.758Z,6.70
2018-07-11T23:26:21.114Z,5.87
2018-07-11T23:28:47.447Z,5.90
2018-07-11T23:31:13.808Z,6.50
2018-07-11T23:33:40.134Z,5.60
2018-07-11T23:36:06.480Z,5.20
2018-07-11T23:38:32.841Z,5.67
2018-07-11T23:40:59.464Z,4.90
2018-07-11T23:43:25.822Z,4.90
2018-07-11T23:45:52.163Z,6.20
2018-07-11T23:48:18.505Z,5.40
2018-07-11T23:50:44.885Z,5.13
2018-07-11T23:53:11.222Z,4.90
2018-07-11T23:55:37.594Z,4.10
2018-07-11T23:58:03.923Z,4.90
